Yuma MCAS/Yuma International Airport
KNYL : now visible

Airfield :











YOU CAN JOIN US ON...

 
LOGIN :

Register | Disclaimer

   EN    FR    IT 

 









Legend :    VFR   Marginal VFR   IFR   Intensive IFR   Very Intensive IFR
Visi :
Ceiling :
>= 8 km
>= 3000ft
5 to 8 km
1000 to 3000 ft
1500m to 5 km
500 to 1000 ft
800 to 1500m
200 to 500 ft
< 800m
< 200 ft
Symbols :   Thunderstorms  Fog  Heavy snow  Heavy precipitations  Wind > 20 kt






- Airport Elevation : 213 ft
- IATA code : YUM


KNYL - Yuma MCAS/Yuma International

CURRENT METAR :
  • 170057Z AUTO 19014KT 10SM CLR 42/07 A2948 RMK AO2 SLP977 T04170067

EXPIRED METARs :
  • 162257Z AUTO 26008G18KT 10SM CLR 42/04 A2951 RMK AO2 SLP989 T04220039
  • 162157Z AUTO 20006KT 10SM CLR 42/08 A2954 RMK AO2 SLP997 T04170078

TAF TAF KNYL
Valid from the 16 at 21:00 until the 17 at 21:00 UTC


1621/1721 25008KT 9999 SKC QNH2967INS
BECMG 1702/1704 31015G25KT 9999 SKC QNH2960INS
BECMG 1710/1712 33015G25KT 9999 SKC QNH2961INS
FM172030 29010G15KT 9999 SKC QNH2959INS T41/1623Z 24/1713Z
KZLA FIR / North America



MET'MAP, your aeronautical weather chart ! - Copyright ORBIFLY December 2007 - Disclaimer

ORBIFLY MET'MAP TEAM :

Programming & Development : Alexandra Zaïnal
Original concept : Baudouin d'Aumeries
Technical & hardware support : Manuel Goepfert
Assistance : Marc-Olivier Méhu




SOURCES & CREDITS :

   NOAA       Earth
Advisory